This is the latest recevied weather packets stored in our database for station/object KN4MGS. If no packets are shown the sender has not sent any weather packets the latest 10 day(s).
| Time | Temp. | Humidity | Pressure | Rain* | Wind** | Luminosity | Snow |
|---|---|---|---|---|---|---|---|
| 1777491552 | 27.78° C | 63% | 1012.3 hPa | 0 mm | - | 793 W/m² | - |
| 1777491249 | 28.33° C | 64% | 1012.5 hPa | 0 mm | - | 769 W/m² | - |
| 1777490945 | 27.22° C | 66% | 1012.7 hPa | 0 mm | - | 833 W/m² | - |
| 1777490641 | 27.78° C | 64% | 1012.6 hPa | 0 mm | - | 502 W/m² | - |
| 1777490337 | 28.89° C | 62% | 1012.5 hPa | 0 mm | - | 484 W/m² | - |
| 1777490035 | 28.89° C | 61% | 1012.7 hPa | 0 mm | - | 717 W/m² | - |
| 1777489733 | 28.33° C | 62% | 1012.8 hPa | 0 mm | - | 763 W/m² | - |
| 1777489429 | 27.78° C | 63% | 1012.9 hPa | 0 mm | - | 789 W/m² | - |
| 1777489126 | 27.78° C | 64% | 1013 hPa | 0 mm | - | 753 W/m² | - |
| 1777488824 | 27.22° C | 63% | 1012.7 hPa | 0 mm | - | 754 W/m² | - |
| 1777488521 | 27.78° C | 63% | 1012.9 hPa | 0 mm | - | 690 W/m² | - |
| 1777488218 | 27.22° C | 65% | 1013.1 hPa | 0 mm | - | 722 W/m² | - |
| 1777487916 | 27.78° C | 65% | 1013.2 hPa | 0 mm | - | 771 W/m² | - |
| 1777487614 | 28.33° C | 63% | 1013.3 hPa | 0 mm | - | 790 W/m² | - |
| 1777487311 | 27.78° C | 64% | 1013.3 hPa | 0 mm | - | 810 W/m² | - |
| 1777487008 | 27.78° C | 63% | 1013.5 hPa | 0 mm | - | 801 W/m² | - |
| 1777486704 | 27.78° C | 65% | 1013.4 hPa | 0 mm | - | 838 W/m² | - |
| 1777486402 | 27.78° C | 66% | 1013.6 hPa | 0 mm | - | 807 W/m² | - |
| 1777486099 | 27.78° C | 66% | 1013.7 hPa | 0 mm | - | 812 W/m² | - |
| 1777485795 | 27.78° C | 67% | 1013.7 hPa | 0 mm | - | 810 W/m² | - |
| 1777485491 | 27.78° C | 67% | 1013.8 hPa | 0 mm | - | 805 W/m² | - |
| 1777485188 | 26.67° C | 72% | 1014.1 hPa | 0 mm | - | 708 W/m² | - |
| 1777484884 | 26.67° C | 71% | 1014.1 hPa | 0 mm | - | 704 W/m² | - |
| 1777484582 | 25.56° C | 73% | 1014.1 hPa | 0 mm | - | 778 W/m² | - |
| 1777484277 | 25° C | 73% | 1014.3 hPa | 0 mm | - | 442 W/m² | - |
* Rain latest hour (hover to see other rain measurements)
** Current wind speed in m/s (hover to see current wind gust speed)